sensor_id;sensor_type;location;lat;lon;timestamp;P1;durP1;ratioP1;P2;durP2;ratioP2
48401;SDS011;34201;52.438;16.744;2022-12-10T15:12:03;0.00;;;0.00;;
48401;SDS011;34201;52.438;16.744;2022-12-10T15:14:30;0.00;;;0.00;;
48401;SDS011;34201;52.438;16.744;2022-12-10T15:16:56;0.00;;;0.00;;
48401;SDS011;34201;52.438;16.744;2022-12-10T15:19:30;0.00;;;0.00;;
48401;SDS011;34201;52.438;16.744;2022-12-10T15:21:59;0.00;;;0.00;;
48401;SDS011;34201;52.438;16.744;2022-12-10T15:24:37;0.00;;;0.00;;
48401;SDS011;34201;52.438;16.744;2022-12-10T15:27:18;0.00;;;0.00;;
48401;SDS011;34201;52.438;16.744;2022-12-10T15:29:46;0.00;;;0.00;;
48401;SDS011;34201;52.438;16.744;2022-12-10T15:32:13;0.00;;;0.00;;
48401;SDS011;34201;52.438;16.744;2022-12-10T15:35:04;0.00;;;0.00;;
48401;SDS011;34201;52.438;16.744;2022-12-10T15:37:32;0.00;;;0.00;;
48401;SDS011;65988;52.422;16.746;2022-12-10T15:40:00;0.00;;;0.00;;
48401;SDS011;65988;52.422;16.746;2022-12-10T15:45:16;0.00;;;0.00;;
48401;SDS011;65988;52.422;16.746;2022-12-10T15:47:46;0.00;;;0.00;;
48401;SDS011;65988;52.422;16.746;2022-12-10T15:50:11;0.00;;;0.00;;
48401;SDS011;65988;52.422;16.746;2022-12-10T15:52:38;0.00;;;0.00;;
48401;SDS011;65988;52.422;16.746;2022-12-10T15:55:04;0.00;;;0.00;;
48401;SDS011;65988;52.422;16.746;2022-12-10T16:56:45;0.90;;;0.90;;
48401;SDS011;65988;52.422;16.746;2022-12-10T17:07:09;1.10;;;1.10;;
48401;SDS011;65988;52.422;16.746;2022-12-10T17:09:59;0.87;;;0.87;;
48401;SDS011;65988;52.422;16.746;2022-12-10T17:12:40;0.90;;;0.90;;
48401;SDS011;65988;52.422;16.746;2022-12-10T17:21:28;0.97;;;0.97;;
48401;SDS011;65988;52.422;16.746;2022-12-10T17:24:15;0.80;;;0.80;;
48401;SDS011;65988;52.422;16.746;2022-12-10T17:27:03;0.93;;;0.93;;
48401;SDS011;65988;52.422;16.746;2022-12-10T17:29:53;0.80;;;0.80;;
48401;SDS011;65988;52.422;16.746;2022-12-10T17:32:30;0.90;;;0.90;;
48401;SDS011;65988;52.422;16.746;2022-12-10T17:38:20;0.80;;;0.80;;
48401;SDS011;65988;52.422;16.746;2022-12-10T17:40:48;1.00;;;1.00;;
48401;SDS011;65988;52.422;16.746;2022-12-10T17:43:17;0.90;;;0.90;;
48401;SDS011;65988;52.422;16.746;2022-12-10T17:45:55;0.83;;;0.83;;
48401;SDS011;65988;52.422;16.746;2022-12-10T17:48:27;1.00;;;1.00;;
48401;SDS011;65988;52.422;16.746;2022-12-10T17:50:58;0.80;;;0.80;;
48401;SDS011;65988;52.422;16.746;2022-12-10T17:53:29;0.80;;;0.80;;
48401;SDS011;65988;52.422;16.746;2022-12-10T17:56:05;0.93;;;0.93;;
48401;SDS011;65988;52.422;16.746;2022-12-10T17:58:40;0.97;;;0.97;;
48401;SDS011;65988;52.422;16.746;2022-12-10T18:01:11;1.00;;;1.00;;
48401;SDS011;65988;52.422;16.746;2022-12-10T18:03:44;0.80;;;0.80;;
48401;SDS011;65988;52.422;16.746;2022-12-10T18:06:19;0.80;;;0.80;;
48401;SDS011;65988;52.422;16.746;2022-12-10T18:08:48;0.90;;;0.90;;
48401;SDS011;65988;52.422;16.746;2022-12-10T18:11:16;0.90;;;0.90;;
48401;SDS011;65988;52.422;16.746;2022-12-10T18:13:43;0.87;;;0.87;;
48401;SDS011;65988;52.422;16.746;2022-12-10T18:16:13;1.10;;;1.10;;
48401;SDS011;65988;52.422;16.746;2022-12-10T18:18:41;0.90;;;0.90;;
48401;SDS011;65988;52.422;16.746;2022-12-10T18:21:07;0.90;;;0.90;;
48401;SDS011;65988;52.422;16.746;2022-12-10T18:23:34;0.90;;;0.90;;
48401;SDS011;65988;52.422;16.746;2022-12-10T18:25:59;0.80;;;0.80;;
48401;SDS011;65988;52.422;16.746;2022-12-10T18:30:54;0.90;;;0.90;;
48401;SDS011;65988;52.422;16.746;2022-12-10T18:33:22;0.80;;;0.80;;
48401;SDS011;65988;52.422;16.746;2022-12-10T18:35:48;1.07;;;1.07;;
48401;SDS011;65988;52.422;16.746;2022-12-10T18:41:35;0.93;;;0.93;;
48401;SDS011;65988;52.422;16.746;2022-12-10T18:44:01;0.90;;;0.90;;
48401;SDS011;65988;52.422;16.746;2022-12-10T18:46:28;0.80;;;0.80;;
48401;SDS011;65988;52.422;16.746;2022-12-10T18:48:57;0.90;;;0.90;;
48401;SDS011;65988;52.422;16.746;2022-12-10T18:51:27;0.70;;;0.70;;
48401;SDS011;65988;52.422;16.746;2022-12-10T18:53:56;0.80;;;0.80;;
48401;SDS011;65988;52.422;16.746;2022-12-10T18:56:22;0.80;;;0.80;;
48401;SDS011;65988;52.422;16.746;2022-12-10T18:58:49;0.70;;;0.70;;
48401;SDS011;65988;52.422;16.746;2022-12-10T19:01:18;1.00;;;1.00;;
48401;SDS011;65988;52.422;16.746;2022-12-10T19:03:46;0.80;;;0.80;;
48401;SDS011;65988;52.422;16.746;2022-12-10T19:06:13;0.80;;;0.80;;
48401;SDS011;65988;52.422;16.746;2022-12-10T19:08:43;0.90;;;0.90;;
48401;SDS011;65988;52.422;16.746;2022-12-10T19:11:10;1.00;;;1.00;;
48401;SDS011;65988;52.422;16.746;2022-12-10T19:13:35;0.77;;;0.77;;
48401;SDS011;65988;52.422;16.746;2022-12-10T19:16:01;0.90;;;0.90;;
48401;SDS011;65988;52.422;16.746;2022-12-10T19:18:27;0.80;;;0.80;;
48401;SDS011;65988;52.422;16.746;2022-12-10T19:20:53;0.90;;;0.90;;
48401;SDS011;65988;52.422;16.746;2022-12-10T19:23:18;0.97;;;0.97;;
48401;SDS011;65988;52.422;16.746;2022-12-10T19:25:44;0.70;;;0.70;;
48401;SDS011;65988;52.422;16.746;2022-12-10T19:28:09;0.83;;;0.83;;
48401;SDS011;65988;52.422;16.746;2022-12-10T19:30:36;0.70;;;0.70;;
48401;SDS011;65988;52.422;16.746;2022-12-10T19:33:01;0.83;;;0.83;;
48401;SDS011;65988;52.422;16.746;2022-12-10T19:35:27;0.80;;;0.80;;
48401;SDS011;65988;52.422;16.746;2022-12-10T19:37:58;0.90;;;0.90;;
48401;SDS011;65988;52.422;16.746;2022-12-10T19:40:27;0.67;;;0.67;;
48401;SDS011;65988;52.422;16.746;2022-12-10T19:42:54;0.85;;;0.85;;
48401;SDS011;65988;52.422;16.746;2022-12-10T19:45:20;0.97;;;0.97;;
48401;SDS011;65988;52.422;16.746;2022-12-10T19:47:47;0.80;;;0.80;;
48401;SDS011;65988;52.422;16.746;2022-12-10T19:50:19;0.90;;;0.90;;
48401;SDS011;65988;52.422;16.746;2022-12-10T19:52:47;0.87;;;0.87;;
48401;SDS011;65988;52.422;16.746;2022-12-10T19:55:13;0.83;;;0.83;;
48401;SDS011;65988;52.422;16.746;2022-12-10T19:57:40;0.90;;;0.90;;
48401;SDS011;65988;52.422;16.746;2022-12-10T20:00:12;0.83;;;0.83;;
48401;SDS011;65988;52.422;16.746;2022-12-10T20:02:40;0.80;;;0.80;;
48401;SDS011;65988;52.422;16.746;2022-12-10T20:05:10;0.90;;;0.90;;
48401;SDS011;65988;52.422;16.746;2022-12-10T20:07:37;1.00;;;1.00;;
48401;SDS011;65988;52.422;16.746;2022-12-10T20:10:03;0.90;;;0.90;;
48401;SDS011;65988;52.422;16.746;2022-12-10T20:12:30;0.80;;;0.80;;
48401;SDS011;65988;52.422;16.746;2022-12-10T20:14:55;0.90;;;0.90;;
48401;SDS011;65988;52.422;16.746;2022-12-10T20:17:24;0.90;;;0.90;;
48401;SDS011;65988;52.422;16.746;2022-12-10T20:19:50;0.70;;;0.70;;
48401;SDS011;65988;52.422;16.746;2022-12-10T20:22:20;0.83;;;0.83;;
48401;SDS011;65988;52.422;16.746;2022-12-10T20:24:46;0.80;;;0.80;;
48401;SDS011;65988;52.422;16.746;2022-12-10T20:27:14;0.80;;;0.80;;
48401;SDS011;65988;52.422;16.746;2022-12-10T20:29:41;0.90;;;0.90;;
48401;SDS011;65988;52.422;16.746;2022-12-10T20:32:09;1.00;;;1.00;;
48401;SDS011;65988;52.422;16.746;2022-12-10T20:34:35;0.90;;;0.90;;
48401;SDS011;65988;52.422;16.746;2022-12-10T20:37:02;0.80;;;0.80;;
48401;SDS011;65988;52.422;16.746;2022-12-10T20:39:30;1.00;;;1.00;;
48401;SDS011;65988;52.422;16.746;2022-12-10T20:42:00;0.90;;;0.90;;
48401;SDS011;65988;52.422;16.746;2022-12-10T20:44:30;0.90;;;0.90;;
48401;SDS011;65988;52.422;16.746;2022-12-10T20:46:57;0.70;;;0.70;;
48401;SDS011;65988;52.422;16.746;2022-12-10T20:49:23;0.87;;;0.87;;
48401;SDS011;65988;52.422;16.746;2022-12-10T20:54:32;0.87;;;0.87;;
48401;SDS011;65988;52.422;16.746;2022-12-10T20:56:57;0.80;;;0.80;;
48401;SDS011;65988;52.422;16.746;2022-12-10T20:59:26;1.00;;;1.00;;
48401;SDS011;65988;52.422;16.746;2022-12-10T21:01:55;0.90;;;0.90;;
48401;SDS011;65988;52.422;16.746;2022-12-10T21:04:20;0.80;;;0.80;;
48401;SDS011;65988;52.422;16.746;2022-12-10T21:06:46;0.80;;;0.80;;
48401;SDS011;65988;52.422;16.746;2022-12-10T21:09:14;1.00;;;1.00;;
48401;SDS011;65988;52.422;16.746;2022-12-10T21:11:41;1.00;;;1.00;;
48401;SDS011;65988;52.422;16.746;2022-12-10T21:14:06;1.07;;;1.07;;
48401;SDS011;65988;52.422;16.746;2022-12-10T21:16:32;0.73;;;0.73;;
48401;SDS011;65988;52.422;16.746;2022-12-10T21:19:06;0.80;;;0.80;;
48401;SDS011;65988;52.422;16.746;2022-12-10T21:21:32;0.90;;;0.90;;
48401;SDS011;65988;52.422;16.746;2022-12-10T21:23:57;0.90;;;0.90;;
48401;SDS011;65988;52.422;16.746;2022-12-10T21:26:22;0.70;;;0.70;;
48401;SDS011;65988;52.422;16.746;2022-12-10T21:28:49;0.70;;;0.70;;
48401;SDS011;65988;52.422;16.746;2022-12-10T21:31:17;0.97;;;0.97;;
48401;SDS011;65988;52.422;16.746;2022-12-10T21:33:46;0.77;;;0.77;;
48401;SDS011;65988;52.422;16.746;2022-12-10T21:36:12;0.90;;;0.90;;
48401;SDS011;65988;52.422;16.746;2022-12-10T21:38:39;0.80;;;0.80;;
48401;SDS011;65988;52.422;16.746;2022-12-10T21:41:05;0.80;;;0.80;;
48401;SDS011;65988;52.422;16.746;2022-12-10T21:43:52;0.90;;;0.90;;
48401;SDS011;65988;52.422;16.746;2022-12-10T21:46:19;0.90;;;0.90;;
48401;SDS011;65988;52.422;16.746;2022-12-10T21:48:45;0.90;;;0.90;;
48401;SDS011;65988;52.422;16.746;2022-12-10T21:51:17;0.70;;;0.70;;
48401;SDS011;65988;52.422;16.746;2022-12-10T21:53:43;0.80;;;0.80;;
48401;SDS011;65988;52.422;16.746;2022-12-10T21:56:14;0.80;;;0.80;;
48401;SDS011;65988;52.422;16.746;2022-12-10T21:58:40;0.87;;;0.87;;
48401;SDS011;65988;52.422;16.746;2022-12-10T22:01:06;0.93;;;0.93;;
48401;SDS011;65988;52.422;16.746;2022-12-10T22:03:34;0.80;;;0.80;;
48401;SDS011;65988;52.422;16.746;2022-12-10T22:06:02;0.73;;;0.73;;
48401;SDS011;65988;52.422;16.746;2022-12-10T22:08:28;0.90;;;0.90;;
48401;SDS011;65988;52.422;16.746;2022-12-10T22:10:54;0.90;;;0.90;;
48401;SDS011;65988;52.422;16.746;2022-12-10T22:13:22;0.70;;;0.70;;
48401;SDS011;65988;52.422;16.746;2022-12-10T22:15:48;0.83;;;0.83;;
48401;SDS011;65988;52.422;16.746;2022-12-10T22:18:14;0.87;;;0.87;;
48401;SDS011;65988;52.422;16.746;2022-12-10T22:20:44;0.75;;;0.75;;
48401;SDS011;65988;52.422;16.746;2022-12-10T22:23:11;0.80;;;0.80;;
48401;SDS011;65988;52.422;16.746;2022-12-10T22:25:39;0.90;;;0.90;;
48401;SDS011;65988;52.422;16.746;2022-12-10T22:28:07;0.93;;;0.93;;
48401;SDS011;65988;52.422;16.746;2022-12-10T22:30:33;0.90;;;0.90;;
48401;SDS011;65988;52.422;16.746;2022-12-10T22:33:00;0.90;;;0.90;;
48401;SDS011;65988;52.422;16.746;2022-12-10T22:35:25;0.90;;;0.90;;
48401;SDS011;65988;52.422;16.746;2022-12-10T22:37:51;0.90;;;0.90;;
48401;SDS011;65988;52.422;16.746;2022-12-10T22:40:18;1.00;;;1.00;;
48401;SDS011;65988;52.422;16.746;2022-12-10T22:42:46;0.87;;;0.87;;
48401;SDS011;65988;52.422;16.746;2022-12-10T22:45:12;0.90;;;0.90;;
48401;SDS011;65988;52.422;16.746;2022-12-10T22:47:37;1.07;;;1.07;;
48401;SDS011;65988;52.422;16.746;2022-12-10T22:50:04;0.80;;;0.80;;
48401;SDS011;65988;52.422;16.746;2022-12-10T22:52:30;0.90;;;0.90;;
48401;SDS011;65988;52.422;16.746;2022-12-10T22:54:56;0.87;;;0.87;;
48401;SDS011;65988;52.422;16.746;2022-12-10T22:57:22;0.80;;;0.80;;
48401;SDS011;65988;52.422;16.746;2022-12-10T22:59:50;0.97;;;0.97;;
48401;SDS011;65988;52.422;16.746;2022-12-10T23:02:16;0.80;;;0.80;;
48401;SDS011;65988;52.422;16.746;2022-12-10T23:04:42;0.80;;;0.80;;
48401;SDS011;65988;52.422;16.746;2022-12-10T23:07:13;0.90;;;0.90;;
48401;SDS011;65988;52.422;16.746;2022-12-10T23:09:38;0.87;;;0.87;;
48401;SDS011;65988;52.422;16.746;2022-12-10T23:12:05;1.07;;;1.07;;
48401;SDS011;65988;52.422;16.746;2022-12-10T23:14:49;0.80;;;0.80;;
48401;SDS011;65988;52.422;16.746;2022-12-10T23:17:14;0.90;;;0.90;;
48401;SDS011;65988;52.422;16.746;2022-12-10T23:19:40;0.90;;;0.90;;
48401;SDS011;65988;52.422;16.746;2022-12-10T23:22:07;0.80;;;0.80;;
48401;SDS011;65988;52.422;16.746;2022-12-10T23:24:34;0.80;;;0.80;;
48401;SDS011;65988;52.422;16.746;2022-12-10T23:27:00;0.80;;;0.80;;
48401;SDS011;65988;52.422;16.746;2022-12-10T23:29:25;0.80;;;0.80;;
48401;SDS011;65988;52.422;16.746;2022-12-10T23:31:51;0.90;;;0.90;;
48401;SDS011;65988;52.422;16.746;2022-12-10T23:34:16;1.00;;;1.00;;
48401;SDS011;65988;52.422;16.746;2022-12-10T23:36:42;0.80;;;0.80;;
48401;SDS011;65988;52.422;16.746;2022-12-10T23:39:11;0.80;;;0.80;;
48401;SDS011;65988;52.422;16.746;2022-12-10T23:41:37;0.87;;;0.87;;
48401;SDS011;65988;52.422;16.746;2022-12-10T23:44:02;0.90;;;0.90;;
48401;SDS011;65988;52.422;16.746;2022-12-10T23:46:28;0.80;;;0.80;;
48401;SDS011;65988;52.422;16.746;2022-12-10T23:48:55;0.80;;;0.80;;
48401;SDS011;65988;52.422;16.746;2022-12-10T23:51:24;0.90;;;0.90;;
48401;SDS011;65988;52.422;16.746;2022-12-10T23:53:50;1.00;;;1.00;;
48401;SDS011;65988;52.422;16.746;2022-12-10T23:56:17;0.80;;;0.80;;
48401;SDS011;65988;52.422;16.746;2022-12-10T23:58:44;0.90;;;0.90;;
